Time;durP1;ratioP1;P1;durP2;ratioP2;P2;SDS_P1;SDS_P2;PMS_P1;PMS_P2;Temp;Humidity;BMP_temperature;BMP_pressure;BME280_temperature;BME280_humidity;BME280_pressure;Samples;Min_cycle;Max_cycle;Signal;HPM_P1;HPM_P2
2021/06/01 00:02:28;;;;;;;4.63;4.13;;;9.90;58.10;;;;;;4998460;28;20542;-88
2021/06/01 00:05:09;;;;;;;4.73;4.33;;;10.00;57.20;;;;;;4984165;28;20460;-88
2021/06/01 00:07:49;;;;;;;5.70;4.53;;;9.80;58.10;;;;;;5008695;28;20446;-88
2021/06/01 00:13:22;;;;;;;5.07;4.33;;;9.60;58.40;;;;;;5010606;28;20486;-88
2021/06/01 00:16:02;;;;;;;4.83;4.43;;;9.50;58.30;;;;;;4999602;28;20491;-88
2021/06/01 00:18:44;;;;;;;5.83;4.50;;;9.50;58.80;;;;;;4985381;28;20456;-88
2021/06/01 00:21:18;;;;;;;4.50;4.10;;;9.60;58.70;;;;;;4998442;28;20460;-88
2021/06/01 00:23:58;;;;;;;5.03;4.53;;;9.50;59.10;;;;;;4996321;28;20455;-88
2021/06/01 00:26:34;;;;;;;4.90;4.40;;;9.50;59.60;;;;;;4998304;28;20512;-88
2021/06/01 00:29:25;;;;;;;5.73;5.10;;;9.30;60.20;;;;;;4991608;28;20564;-88
2021/06/01 00:35:06;;;;;;;5.63;5.23;;;9.10;62.00;;;;;;4989982;28;20502;-88
2021/06/01 00:37:42;;;;;;;6.33;5.57;;;9.10;63.00;;;;;;4996078;28;20460;-87
2021/06/01 00:40:24;;;;;;;5.87;5.07;;;9.00;63.70;;;;;;4996878;28;20479;-88
2021/06/01 00:42:59;;;;;;;5.67;5.27;;;9.00;64.10;;;;;;4991454;28;20848;-88
2021/06/01 00:48:34;;;;;;;5.00;4.60;;;8.90;65.10;;;;;;4992523;28;20448;-88
2021/06/01 00:51:15;;;;;;;5.60;5.20;;;8.90;66.10;;;;;;4990209;28;20542;-88
2021/06/01 00:53:52;;;;;;;6.50;5.67;;;8.80;66.80;;;;;;4999009;28;20439;-88
2021/06/01 00:56:29;;;;;;;5.27;4.80;;;8.90;66.70;;;;;;4977510;28;20475;-89
2021/06/01 00:59:04;;;;;;;6.10;5.50;;;8.90;67.60;;;;;;4997583;28;20514;-89
2021/06/01 01:05:00;;;;;;;6.40;5.90;;;8.60;69.10;;;;;;4994148;28;20455;-88
2021/06/01 01:07:43;;;;;;;5.17;4.77;;;8.40;70.20;;;;;;4988860;28;20483;-88
2021/06/01 01:10:25;;;;;;;6.53;5.40;;;8.40;71.20;;;;;;4995999;28;20456;-88
2021/06/01 01:13:11;;;;;;;5.60;5.20;;;8.50;71.30;;;;;;4997595;28;20479;-89
2021/06/01 01:15:49;;;;;;;8.00;5.67;;;8.30;71.90;;;;;;4999909;28;20466;-88
2021/06/01 01:18:45;;;;;;;7.10;5.27;;;8.30;72.70;;;;;;4989954;28;20514;-88
2021/06/01 01:21:31;;;;;;;7.70;5.60;;;8.30;73.10;;;;;;4997793;28;20974;-89
2021/06/01 01:24:20;;;;;;;6.67;5.83;;;8.20;73.40;;;;;;4979180;28;20449;-89
2021/06/01 01:27:08;;;;;;;6.50;5.63;;;8.30;73.30;;;;;;4997919;28;20510;-89
2021/06/01 01:30:00;;;;;;;6.27;5.73;;;8.20;73.70;;;;;;4996967;28;20602;-89
2021/06/01 01:32:48;;;;;;;6.27;5.67;;;8.20;73.80;;;;;;4994040;28;20759;-88
2021/06/01 01:35:51;;;;;;;6.07;5.47;;;8.10;74.00;;;;;;4994822;28;20854;-88
2021/06/01 01:38:33;;;;;;;5.70;5.30;;;8.00;74.90;;;;;;5000172;28;21110;-88
2021/06/01 01:41:19;;;;;;;6.10;5.60;;;8.00;75.00;;;;;;4989332;28;20502;-88
2021/06/01 01:43:56;;;;;;;6.40;5.90;;;8.10;74.70;;;;;;4979446;28;20519;-88
2021/06/01 01:46:36;;;;;;;6.07;5.47;;;8.00;74.70;;;;;;5002996;28;20473;-88
2021/06/01 01:49:12;;;;;;;6.00;5.40;;;8.00;74.90;;;;;;4995584;28;20493;-88
2021/06/01 01:52:07;;;;;;;6.63;6.03;;;7.80;75.40;;;;;;4996246;28;20459;-88
2021/06/01 01:54:51;;;;;;;6.80;6.20;;;7.90;75.90;;;;;;4974690;28;20464;-88
2021/06/01 01:57:35;;;;;;;6.60;5.97;;;7.80;75.80;;;;;;4996284;28;20477;-89
2021/06/01 02:00:19;;;;;;;6.20;5.70;;;7.90;75.70;;;;;;4992583;28;20503;-87
2021/06/01 02:03:00;;;;;;;5.83;5.33;;;7.90;75.80;;;;;;4990301;28;20480;-88
2021/06/01 02:05:40;;;;;;;6.30;5.73;;;7.90;75.80;;;;;;4985578;28;20538;-88
2021/06/01 02:08:30;;;;;;;6.23;5.70;;;7.90;75.80;;;;;;5000325;28;20541;-88
2021/06/01 02:11:21;;;;;;;6.33;5.73;;;7.90;76.10;;;;;;5007401;28;20451;-88
2021/06/01 02:14:07;;;;;;;6.60;6.00;;;8.00;76.10;;;;;;5009658;28;20459;-88
2021/06/01 02:16:49;;;;;;;6.47;5.87;;;7.90;75.70;;;;;;4998302;28;20507;-88
2021/06/01 02:19:30;;;;;;;6.33;5.80;;;7.90;76.10;;;;;;5016711;28;20460;-89
2021/06/01 02:25:15;;;;;;;7.40;5.87;;;7.80;76.70;;;;;;5003611;28;20482;-87
2021/06/01 02:27:58;;;;;;;6.57;5.97;;;7.90;76.50;;;;;;5017750;28;20439;-88
2021/06/01 02:30:43;;;;;;;6.53;5.93;;;8.30;75.00;;;;;;5010598;28;20459;-89
2021/06/01 02:33:23;;;;;;;6.23;5.63;;;8.20;74.80;;;;;;5000131;28;20499;-88
2021/06/01 02:36:03;;;;;;;6.83;5.37;;;8.10;74.50;;;;;;4995212;28;20552;-89
2021/06/01 02:38:39;;;;;;;6.20;5.70;;;8.00;74.70;;;;;;4999049;28;20471;-88
2021/06/01 02:41:42;;;;;;;5.70;5.20;;;8.00;74.90;;;;;;4981561;28;20459;-88
2021/06/01 02:44:22;;;;;;;5.80;5.30;;;7.90;74.60;;;;;;4996114;28;20456;-89
2021/06/01 02:49:49;;;;;;;6.30;5.70;;;7.90;75.20;;;;;;4991915;28;20943;-89
2021/06/01 02:55:19;;;;;;;6.60;6.00;;;7.80;75.70;;;;;;4995991;28;20535;-88
2021/06/01 02:58:20;;;;;;;5.60;5.10;;;7.90;75.50;;;;;;4993316;28;20472;-88
2021/06/01 03:01:08;;;;;;;6.40;5.80;;;7.80;76.10;;;;;;4984671;28;20452;-88
2021/06/01 03:06:37;;;;;;;7.50;6.80;;;7.60;77.70;;;;;;4991889;28;20873;-88
2021/06/01 03:09:11;;;;;;;6.70;6.10;;;7.60;77.70;;;;;;4994892;28;20463;-88
2021/06/01 03:11:52;;;;;;;7.13;6.50;;;7.60;78.10;;;;;;5000620;28;21133;-88
2021/06/01 03:14:43;;;;;;;8.30;6.47;;;7.50;78.30;;;;;;4995597;28;20526;-88
2021/06/01 03:17:23;;;;;;;8.33;6.30;;;7.50;78.80;;;;;;4991219;28;20899;-89
2021/06/01 03:20:03;;;;;;;7.33;6.30;;;7.50;79.30;;;;;;4997413;28;20451;-88
2021/06/01 03:22:44;;;;;;;7.37;6.77;;;7.40;79.20;;;;;;4999110;28;20460;-88
2021/06/01 03:25:25;;;;;;;7.00;6.30;;;7.50;79.90;;;;;;4991080;28;20459;-89
2021/06/01 03:28:04;;;;;;;7.20;6.60;;;7.40;80.00;;;;;;5007945;28;20524;-89
2021/06/01 03:30:44;;;;;;;12.43;7.40;;;7.40;80.20;;;;;;5024180;28;20444;-88
2021/06/01 03:33:25;;;;;;;9.47;7.03;;;7.50;80.10;;;;;;4984936;28;20513;-88
2021/06/01 03:36:04;;;;;;;7.67;6.50;;;7.50;80.10;;;;;;4992393;28;20503;-89
2021/06/01 03:38:39;;;;;;;7.20;6.50;;;7.50;80.00;;;;;;4994175;28;20552;-89
2021/06/01 03:41:18;;;;;;;7.60;6.47;;;7.60;79.40;;;;;;4993565;28;20464;-88
2021/06/01 03:43:58;;;;;;;6.40;5.83;;;7.60;79.40;;;;;;5001438;28;21140;-88
2021/06/01 03:49:26;;;;;;;7.90;7.10;;;7.70;79.20;;;;;;5007919;28;20472;-89
2021/06/01 03:54:53;;;;;;;7.07;6.47;;;7.80;78.50;;;;;;4996430;28;20531;-89
2021/06/01 03:57:34;;;;;;;7.17;6.50;;;7.80;78.30;;;;;;4980859;28;20467;-88
2021/06/01 04:00:25;;;;;;;7.50;6.90;;;7.90;78.00;;;;;;4996991;28;20483;-88
2021/06/01 04:08:48;;;;;;;6.87;6.17;;;14.10;66.40;;;;;;4988759;28;20454;-88
2021/06/01 04:11:28;;;;;;;7.20;6.50;;;15.80;59.50;;;;;;4975312;28;20491;-89
2021/06/01 04:14:04;;;;;;;6.33;5.83;;;16.50;56.80;;;;;;4977749;28;20467;-87
2021/06/01 04:22:32;;;;;;;8.90;6.23;;;19.00;51.80;;;;;;4993104;28;20458;-90
2021/06/01 04:25:09;;;;;;;6.10;5.50;;;19.30;50.90;;;;;;4989919;28;20557;-89
2021/06/01 04:27:44;;;;;;;6.27;5.67;;;19.40;50.30;;;;;;4980899;28;20962;-90
2021/06/01 04:30:25;;;;;;;6.53;5.60;;;19.80;49.90;;;;;;4979825;28;20484;-89
2021/06/01 04:33:10;;;;;;;6.20;5.70;;;19.80;49.00;;;;;;4983627;28;20517;-88
2021/06/01 04:35:55;;;;;;;6.53;5.93;;;20.20;48.90;;;;;;4994635;28;20470;-88
2021/06/01 04:38:35;;;;;;;5.50;5.00;;;20.50;48.50;;;;;;4998898;28;20495;-87
2021/06/01 04:41:13;;;;;;;6.20;5.60;;;20.90;47.90;;;;;;5002901;28;20559;-86
2021/06/01 04:43:55;;;;;;;5.60;5.20;;;20.80;47.40;;;;;;4994152;28;20551;-86
2021/06/01 04:46:34;;;;;;;6.70;5.60;;;21.10;47.10;;;;;;4996807;28;20467;-87
2021/06/01 04:49:14;;;;;;;6.13;5.27;;;21.50;47.00;;;;;;4980170;28;20455;-88
2021/06/01 04:52:01;;;;;;;5.80;5.30;;;21.30;46.00;;;;;;4999590;28;20455;-88
2021/06/01 04:54:48;;;;;;;6.90;5.50;;;21.60;46.10;;;;;;4993341;28;20484;-88
2021/06/01 04:57:23;;;;;;;7.73;5.70;;;21.20;46.00;;;;;;4993263;28;20998;-88
2021/06/01 05:00:00;;;;;;;6.07;5.57;;;20.80;45.50;;;;;;4987500;28;20455;-88
2021/06/01 05:02:49;;;;;;;6.40;5.70;;;21.70;46.40;;;;;;4988630;28;20517;-87
2021/06/01 05:05:23;;;;;;;6.33;5.73;;;22.00;46.10;;;;;;5004478;28;20444;-87
2021/06/01 05:11:12;;;;;;;6.27;5.60;;;22.60;46.00;;;;;;5014181;28;20451;-88
2021/06/01 05:19:26;;;;;;;7.00;6.00;;;22.60;45.00;;;;;;5002283;28;20444;-88
2021/06/01 05:22:09;;;;;;;6.50;5.90;;;23.10;45.60;;;;;;5003152;28;20453;-88
2021/06/01 05:27:52;;;;;;;7.30;5.40;;;18.30;44.00;;;;;;4998368;28;20543;-87
2021/06/01 05:36:06;;;;;;;6.77;6.10;;;23.50;44.70;;;;;;5000694;28;20528;-79
2021/06/01 05:38:41;;;;;;;6.30;5.20;;;24.00;44.60;;;;;;4989246;28;20539;-85
2021/06/01 05:41:21;;;;;;;5.90;5.40;;;23.70;43.80;;;;;;4998108;28;20212;-86
2021/06/01 05:44:03;;;;;;;5.90;4.90;;;23.50;43.90;;;;;;5004720;28;20456;-86
2021/06/01 05:46:43;;;;;;;7.40;6.00;;;23.50;43.80;;;;;;5008013;28;20515;-86
2021/06/01 05:49:36;;;;;;;5.97;5.37;;;23.70;43.70;;;;;;5008940;28;20468;-85
2021/06/01 05:52:12;;;;;;;5.60;5.10;;;23.90;43.60;;;;;;5028728;28;20448;-88
2021/06/01 05:54:47;;;;;;;5.50;5.07;;;23.80;43.50;;;;;;5011369;28;20476;-87
2021/06/01 05:57:31;;;;;;;5.47;4.97;;;23.80;43.40;;;;;;5023264;28;20486;-87
2021/06/01 06:00:08;;;;;;;9.17;5.60;;;22.70;42.30;;;;;;5018695;28;20453;-85
2021/06/01 06:02:43;;;;;;;7.00;5.30;;;23.60;43.90;;;;;;5001540;28;20437;-87
2021/06/01 06:05:16;;;;;;;5.40;4.93;;;21.80;42.20;;;;;;5018057;28;20543;-86
2021/06/01 06:07:53;;;;;;;6.10;5.50;;;22.10;43.80;;;;;;5004215;28;20442;-87
2021/06/01 06:10:28;;;;;;;5.03;4.50;;;19.30;42.30;;;;;;5005590;28;20958;-87
2021/06/01 06:13:28;;;;;;;7.33;4.90;;;20.60;44.00;;;;;;4987371;28;20444;-87
2021/06/01 06:18:59;;;;;;;5.57;5.07;;;21.40;44.00;;;;;;4991640;28;20495;-88
2021/06/01 06:21:40;;;;;;;4.90;4.50;;;20.50;43.30;;;;;;4996504;28;20459;-87
2021/06/01 06:24:30;;;;;;;7.03;5.50;;;18.40;43.20;;;;;;4992419;28;20455;-88
2021/06/01 06:27:14;;;;;;;8.77;5.47;;;15.90;44.40;;;;;;4996346;28;20471;-87
2021/06/01 06:29:56;;;;;;;8.43;5.20;;;14.70;46.40;;;;;;5000701;28;20451;-86
2021/06/01 06:32:35;;;;;;;6.60;4.80;;;14.60;47.20;;;;;;5003081;28;20436;-86
2021/06/01 06:35:16;;;;;;;4.90;4.60;;;14.50;47.40;;;;;;4995715;28;20460;-87
2021/06/01 06:37:51;;;;;;;7.50;5.10;;;14.60;47.90;;;;;;5002933;28;20993;-87
2021/06/01 06:40:26;;;;;;;5.70;5.03;;;14.80;48.10;;;;;;5002195;28;21423;-88
2021/06/01 06:43:01;;;;;;;5.20;4.70;;;15.00;48.70;;;;;;4980746;28;20524;-85
2021/06/01 06:45:41;;;;;;;5.50;5.00;;;14.80;48.30;;;;;;4996888;28;20551;-86
2021/06/01 06:48:21;;;;;;;6.43;5.07;;;15.10;48.70;;;;;;4996237;28;20536;-86
2021/06/01 06:54:09;;;;;;;5.30;4.57;;;15.60;48.20;;;;;;4985873;28;20823;-85
2021/06/01 06:56:46;;;;;;;5.17;4.70;;;16.00;48.30;;;;;;5005844;28;20475;-80
2021/06/01 06:59:20;;;;;;;5.40;5.00;;;16.30;48.40;;;;;;5007826;28;20468;-82
2021/06/01 07:01:57;;;;;;;4.93;4.43;;;16.20;47.70;;;;;;5019976;28;20462;-85
2021/06/01 07:04:32;;;;;;;5.10;4.60;;;16.60;48.50;;;;;;5004123;28;20841;-84
2021/06/01 07:07:12;;;;;;;5.07;4.67;;;16.70;47.80;;;;;;4984012;28;20441;-84
2021/06/01 07:09:47;;;;;;;13.30;5.93;;;16.80;48.20;;;;;;5002887;28;20531;-85
2021/06/01 07:12:22;;;;;;;5.30;4.60;;;17.10;48.50;;;;;;5013446;28;20448;-89
2021/06/01 07:15:03;;;;;;;4.23;3.83;;;17.20;47.60;;;;;;5005718;28;20447;-85
2021/06/01 07:17:45;;;;;;;5.30;4.80;;;17.10;47.20;;;;;;5021220;28;20463;-89
2021/06/01 07:20:20;;;;;;;4.10;3.80;;;17.00;47.00;;;;;;5012804;28;20811;-84
2021/06/01 07:22:55;;;;;;;5.03;4.20;;;16.90;47.50;;;;;;5002815;28;20494;-79
2021/06/01 07:25:30;;;;;;;4.37;3.97;;;17.20;47.80;;;;;;5011471;28;20605;-78
2021/06/01 07:28:05;;;;;;;3.93;3.53;;;17.40;47.50;;;;;;4985282;28;20440;-80
2021/06/01 07:30:40;;;;;;;6.43;4.40;;;17.50;46.90;;;;;;4992215;28;20484;-79
2021/06/01 07:33:17;;;;;;;4.73;3.60;;;17.60;47.30;;;;;;5004212;28;20455;-82
2021/06/01 07:35:52;;;;;;;4.73;4.10;;;17.30;46.70;;;;;;4996477;28;20603;-78
2021/06/01 07:38:24;;;;;;;6.37;3.87;;;17.60;47.50;;;;;;5000623;28;20464;-82
2021/06/01 07:41:08;;;;;;;5.38;3.83;;;18.00;46.60;;;;;;5002238;28;20977;-83
2021/06/01 07:43:40;;;;;;;3.40;3.20;;;18.30;46.40;;;;;;5002819;28;20292;-81
2021/06/01 07:46:15;;;;;;;4.00;3.70;;;17.80;45.50;;;;;;5003063;28;20456;-79
2021/06/01 07:49:03;;;;;;;4.13;3.83;;;17.90;46.10;;;;;;4998729;28;20459;-82
2021/06/01 07:51:38;;;;;;;7.43;4.17;;;17.90;45.80;;;;;;5000611;28;20455;-83
2021/06/01 07:54:12;;;;;;;4.07;3.67;;;18.40;45.80;;;;;;5003704;28;20451;-82
2021/06/01 07:56:52;;;;;;;4.60;4.20;;;18.90;46.30;;;;;;5003804;28;20449;-87
2021/06/01 07:59:28;;;;;;;4.20;3.80;;;19.10;45.60;;;;;;4998278;28;20441;-85
2021/06/01 08:02:03;;;;;;;5.60;4.20;;;19.30;45.50;;;;;;5001797;28;20193;-88
2021/06/01 08:07:28;;;;;;;3.90;3.50;;;18.30;42.50;;;;;;4982627;28;20520;-87
2021/06/01 08:10:05;;;;;;;4.43;3.63;;;;;;;;;;4990180;28;20201;-88
2021/06/01 08:15:51;;;;;;;3.70;3.40;;;18.60;44.30;;;;;;4998666;28;20463;-87
2021/06/01 08:18:43;;;;;;;3.37;3.17;;;18.60;44.20;;;;;;4989853;28;20530;-88
2021/06/01 08:21:51;;;;;;;3.97;3.40;;;19.10;43.80;;;;;;4991705;28;20465;-85
2021/06/01 08:24:36;;;;;;;3.10;2.80;;;19.10;43.30;;;;;;5000384;28;20450;-88
2021/06/01 08:27:12;;;;;;;3.83;3.50;;;18.90;43.10;;;;;;5014005;28;20462;-87
2021/06/01 08:29:46;;;;;;;4.73;3.50;;;19.20;43.40;;;;;;5007937;28;20460;-89
2021/06/01 08:32:22;;;;;;;11.90;3.80;;;19.60;43.40;;;;;;5009749;28;20455;-85
2021/06/01 08:38:01;;;;;;;4.63;3.57;;;19.60;42.50;;;;;;5012779;28;20486;-88
2021/06/01 08:40:51;;;;;;;3.70;3.40;;;19.80;42.40;;;;;;5004131;28;20484;-88
2021/06/01 08:49:40;;;;;;;3.30;3.00;;;19.80;41.80;;;;;;5019697;28;20436;-90
2021/06/01 08:56:06;;;;;;;3.23;2.93;;;19.70;41.40;;;;;;4984058;28;20463;-87
2021/06/01 08:58:55;;;;;;;3.80;3.47;;;19.30;40.60;;;;;;4986256;28;20476;-88
2021/06/01 09:01:36;;;;;;;3.50;3.20;;;19.30;40.90;;;;;;5010207;28;20444;-90
2021/06/01 09:04:10;;;;;;;3.47;3.17;;;19.30;41.70;;;;;;5001656;28;20464;-82
2021/06/01 09:06:54;;;;;;;4.23;2.70;;;19.50;41.60;;;;;;5005249;28;20221;-83
2021/06/01 09:09:44;;;;;;;3.20;2.77;;;20.00;41.70;;;;;;5002719;28;20793;-79
2021/06/01 09:12:32;;;;;;;6.80;3.27;;;20.00;40.70;;;;;;5003756;28;20456;-85
2021/06/01 09:15:32;;;;;;;5.63;3.27;;;20.30;41.80;;;;;;5004762;28;20537;-86
2021/06/01 09:21:18;;;;;;;3.90;3.20;;;19.40;41.10;;;;;;5007789;28;20455;-82
2021/06/01 09:24:02;;;;;;;3.37;2.90;;;19.60;41.00;;;;;;5002356;28;20466;-83
2021/06/01 09:27:08;;;;;;;4.10;2.93;;;19.70;40.60;;;;;;5013391;28;20478;-84
2021/06/01 09:29:50;;;;;;;3.03;2.83;;;19.80;40.70;;;;;;5014152;28;20483;-87
2021/06/01 09:32:26;;;;;;;3.37;3.17;;;19.60;41.50;;;;;;5037515;28;20463;-82
2021/06/01 09:35:01;;;;;;;5.23;3.73;;;19.70;41.40;;;;;;5016219;28;20462;-79
2021/06/01 09:37:36;;;;;;;3.40;3.10;;;19.30;40.80;;;;;;5015054;28;21053;-79
2021/06/01 09:40:18;;;;;;;4.90;3.20;;;19.70;40.60;;;;;;5028485;28;20472;-78
2021/06/01 09:42:55;;;;;;;3.30;2.90;;;20.20;41.60;;;;;;5005972;28;20454;-80
2021/06/01 09:45:28;;;;;;;4.03;3.40;;;20.60;41.50;;;;;;5004667;28;20284;-80
2021/06/01 09:48:03;;;;;;;3.90;2.77;;;20.70;40.20;;;;;;4996487;28;20458;-82
2021/06/01 09:50:47;;;;;;;3.07;2.77;;;20.20;39.40;;;;;;5005858;28;20473;-87
2021/06/01 09:56:21;;;;;;;2.73;2.47;;;20.30;39.00;;;;;;5012652;28;20468;-85
2021/06/01 09:59:15;;;;;;;3.10;2.80;;;20.40;38.80;;;;;;5009729;28;20523;-87
2021/06/01 10:01:53;;;;;;;2.70;2.30;;;20.10;39.20;;;;;;5013469;28;20468;-82
2021/06/01 10:04:30;;;;;;;3.00;2.80;;;20.30;39.70;;;;;;5001137;28;20457;-85
2021/06/01 10:07:33;;;;;;;3.37;2.80;;;20.70;39.30;;;;;;4997847;28;20562;-84
2021/06/01 10:10:18;;;;;;;2.60;2.40;;;20.80;38.60;;;;;;5000420;28;20483;-88
2021/06/01 10:13:05;;;;;;;4.97;2.70;;;21.10;39.20;;;;;;5001035;28;20452;-87
2021/06/01 10:15:47;;;;;;;5.90;2.93;;;21.00;39.60;;;;;;4998479;28;20520;-88
2021/06/01 10:18:29;;;;;;;2.97;2.30;;;20.90;38.70;;;;;;5003353;28;20463;-84
2021/06/01 10:24:02;;;;;;;2.63;2.43;;;21.40;38.70;;;;;;4998846;28;20460;-88
2021/06/01 10:26:37;;;;;;;3.67;2.57;;;21.40;38.20;;;;;;4982255;28;20468;-84
2021/06/01 10:29:26;;;;;;;3.10;2.50;;;21.40;38.60;;;;;;4988036;28;20491;-86
2021/06/01 10:31:59;;;;;;;10.33;2.47;;;21.50;38.60;;;;;;4996449;28;20444;-86
2021/06/01 10:44:03;;;;;;;4.27;2.20;;;21.40;38.70;;;;;;5006986;28;20521;-89
2021/06/01 10:53:18;;;;;;;2.50;2.23;;;21.10;36.90;;;;;;5009288;28;21114;-86
2021/06/01 10:56:22;;;;;;;2.60;2.10;;;20.90;36.30;;;;;;4990511;28;20598;-86
2021/06/01 10:59:13;;;;;;;3.57;2.60;;;21.60;36.50;;;;;;4955731;28;20507;-87
2021/06/01 11:01:58;;;;;;;2.87;2.47;;;21.90;36.70;;;;;;5004135;28;20449;-87
2021/06/01 11:04:33;;;;;;;7.13;2.57;;;22.10;36.80;;;;;;5002067;28;20449;-88
2021/06/01 11:07:39;;;;;;;2.77;2.40;;;21.40;36.90;;;;;;4987944;28;20453;-88
2021/06/01 11:10:23;;;;;;;3.57;2.83;;;21.50;37.60;;;;;;4995462;28;20480;-88
2021/06/01 11:12:59;;;;;;;4.70;2.70;;;21.40;37.50;;;;;;4997745;28;20455;-88
2021/06/01 11:18:53;;;;;;;3.43;2.67;;;21.30;37.40;;;;;;5001344;28;20480;-87
2021/06/01 11:33:29;;;;;;;2.80;2.60;;;21.30;38.00;;;;;;5002070;28;20456;-88
2021/06/01 11:36:15;;;;;;;3.43;2.60;;;21.20;37.50;;;;;;5005431;28;20515;-88
2021/06/01 11:38:59;;;;;;;5.00;3.37;;;21.20;37.80;;;;;;5006513;28;20559;-87
2021/06/01 11:45:11;;;;;;;2.90;2.70;;;21.20;37.70;;;;;;5008897;28;20523;-88
2021/06/01 11:51:11;;;;;;;2.90;2.60;;;21.60;37.40;;;;;;4991370;28;20282;-88
2021/06/01 11:54:11;;;;;;;2.97;2.77;;;21.50;37.60;;;;;;4991699;28;20451;-85
2021/06/01 12:03:07;;;;;;;3.50;3.00;;;22.30;37.60;;;;;;4974076;28;20455;-89
2021/06/01 12:20:51;;;;;;;5.38;2.88;;;22.10;37.30;;;;;;4999530;28;20444;-89
2021/06/01 12:23:54;;;;;;;2.90;2.70;;;22.30;37.60;;;;;;5005917;28;20278;-86
2021/06/01 12:26:41;;;;;;;2.60;2.40;;;22.00;36.20;;;;;;4987250;28;20464;-83
2021/06/01 12:32:18;;;;;;;2.67;2.43;;;22.50;37.20;;;;;;5006409;28;20488;-84
2021/06/01 12:35:07;;;;;;;4.67;2.50;;;22.30;36.60;;;;;;5018134;28;20493;-83
2021/06/01 13:08:38;;;;;;;2.77;2.57;;;23.20;36.50;;;;;;5006859;28;20451;-90
2021/06/01 13:14:41;;;;;;;3.00;2.50;;;23.30;37.30;;;;;;5011503;28;20282;-79
2021/06/01 13:20:30;;;;;;;3.30;2.90;;;22.30;36.50;;;;;;5001937;28;20958;-77
2021/06/01 13:38:17;;;;;;;5.07;2.47;;;23.20;36.50;;;;;;5004284;28;20472;-85
2021/06/01 13:47:08;;;;;;;2.63;2.43;;;23.20;36.40;;;;;;5004661;28;20530;-83
2021/06/01 13:49:46;;;;;;;3.30;2.33;;;23.30;36.60;;;;;;4999233;28;20484;-82
2021/06/01 13:55:24;;;;;;;4.50;2.47;;;23.70;35.90;;;;;;5006766;28;20212;-81
2021/06/01 14:30:54;;;;;;;3.90;2.50;;;24.60;36.90;;;;;;5011573;28;20482;-90
2021/06/01 14:36:51;;;;;;;2.50;2.30;;;24.00;36.10;;;;;;4948788;28;20271;-81
2021/06/01 15:31:03;;;;;;;3.73;2.33;;;26.20;35.90;;;;;;4998682;28;21144;-84
2021/06/01 15:48:01;;;;;;;2.40;2.23;;;;;;;;;;4999863;28;20452;-86
2021/06/01 15:50:44;;;;;;;3.07;2.77;;;25.20;35.70;;;;;;4998791;28;20453;-84
2021/06/01 16:13:59;;;;;;;2.73;2.50;;;24.30;35.60;;;;;;5006364;28;20440;-83
2021/06/01 16:43:04;;;;;;;3.10;2.27;;;24.60;35.80;;;;;;4973822;28;20485;-84
2021/06/01 17:05:50;;;;;;;2.37;2.17;;;27.20;34.40;;;;;;5004412;28;20460;-84
2021/06/01 17:11:48;;;;;;;3.60;3.00;;;26.10;35.20;;;;;;5001364;28;20452;-86
2021/06/01 17:14:29;;;;;;;2.73;2.53;;;24.70;34.90;;;;;;5010956;28;20463;-84
2021/06/01 17:17:09;;;;;;;2.87;2.67;;;25.10;35.40;;;;;;4990294;28;20456;-85
2021/06/01 17:20:07;;;;;;;2.90;2.50;;;26.60;34.50;;;;;;4999602;28;20501;-83
2021/06/01 17:22:53;;;;;;;2.80;2.50;;;27.40;32.90;;;;;;5010780;28;20447;-84
2021/06/01 17:37:01;;;;;;;3.15;2.60;;;29.70;32.60;;;;;;5005052;28;20452;-87
2021/06/01 17:39:36;;;;;;;2.65;2.13;;;29.20;31.30;;;;;;5004815;28;20471;-82
2021/06/01 17:42:19;;;;;;;2.30;2.10;;;27.80;31.70;;;;;;5010238;28;20216;-83
2021/06/01 17:45:15;;;;;;;3.30;2.30;;;29.10;32.30;;;;;;5001782;28;20528;-82
2021/06/01 17:48:08;;;;;;;2.47;2.37;;;30.60;31.80;;;;;;4999820;28;20456;-85
2021/06/01 17:53:29;;;;;;;2.17;2.00;;;30.80;30.80;;;;;;4999485;28;20814;-79
2021/06/01 17:56:06;;;;;;;2.27;2.10;;;31.20;31.80;;;;;;4993366;28;20829;-80
2021/06/01 17:58:55;;;;;;;2.70;2.50;;;31.50;31.20;;;;;;5004739;28;20460;-86
2021/06/01 18:01:32;;;;;;;3.10;2.10;;;31.70;31.90;;;;;;5005324;28;20471;-80
2021/06/01 18:04:09;;;;;;;4.40;2.43;;;30.40;31.20;;;;;;5002079;28;20508;-85
2021/06/01 18:06:47;;;;;;;2.50;2.23;;;30.10;31.60;;;;;;5002277;28;20496;-81
2021/06/01 19:02:30;;;;;;;2.80;2.60;;;20.50;36.90;;;;;;5007508;28;20454;-80
2021/06/01 19:25:46;;;;;;;2.93;2.73;;;18.90;37.80;;;;;;4992780;28;20497;-80
2021/06/01 19:43:38;;;;;;;3.63;3.33;;;18.00;38.90;;;;;;4995765;28;20464;-81
2021/06/01 19:52:02;;;;;;;5.90;3.40;;;17.50;39.50;;;;;;5002802;28;20452;-80
2021/06/01 19:54:40;;;;;;;3.40;2.83;;;17.30;39.70;;;;;;5004856;28;20460;-80
2021/06/01 19:57:20;;;;;;;3.20;2.90;;;17.40;40.00;;;;;;5003776;28;20507;-81
2021/06/01 20:00:09;;;;;;;3.40;3.10;;;17.30;39.90;;;;;;5004484;28;20472;-84
2021/06/01 20:08:48;;;;;;;3.37;3.07;;;17.00;40.60;;;;;;4992969;28;20460;-89
2021/06/01 20:38:06;;;;;;;4.30;3.90;;;16.30;41.80;;;;;;4992645;28;20515;-89
2021/06/01 20:41:20;;;;;;;4.13;3.33;;;16.20;42.00;;;;;;5006401;28;20460;-90
2021/06/01 20:44:29;;;;;;;3.80;3.00;;;16.20;42.00;;;;;;5008040;28;20463;-89
2021/06/01 20:50:32;;;;;;;4.50;3.27;;;15.80;42.40;;;;;;5001293;28;20489;-89
2021/06/01 20:53:40;;;;;;;3.27;2.97;;;15.70;42.50;;;;;;5007858;28;20522;-89
2021/06/01 20:56:46;;;;;;;5.37;3.30;;;15.60;42.50;;;;;;4995942;28;20448;-89
2021/06/01 21:02:38;;;;;;;3.90;3.57;;;15.70;42.70;;;;;;5003980;28;20451;-88
2021/06/01 21:05:47;;;;;;;3.60;3.17;;;15.50;42.60;;;;;;5000804;28;22065;-89
2021/06/01 21:11:53;;;;;;;3.80;3.07;;;15.50;42.50;;;;;;5001896;28;20862;-89
2021/06/01 21:14:42;;;;;;;4.93;3.13;;;15.50;42.60;;;;;;5000886;28;20458;-85
2021/06/01 21:17:18;;;;;;;4.35;3.50;;;15.70;42.60;;;;;;4995412;28;20511;-80
2021/06/01 21:19:55;;;;;;;3.20;3.00;;;15.50;42.70;;;;;;5000569;28;20217;-80
2021/06/01 21:22:30;;;;;;;4.10;3.33;;;15.30;42.80;;;;;;4999617;28;20435;-81
2021/06/01 21:25:05;;;;;;;5.10;3.03;;;15.40;43.20;;;;;;4987680;28;20466;-79
2021/06/01 21:27:42;;;;;;;4.60;3.20;;;15.30;43.20;;;;;;5001478;28;20451;-80
2021/06/01 21:30:18;;;;;;;3.80;3.17;;;15.30;43.30;;;;;;4998382;28;20466;-80
2021/06/01 21:33:03;;;;;;;5.30;4.03;;;15.30;43.30;;;;;;5003035;28;20493;-79
2021/06/01 21:35:41;;;;;;;3.93;3.63;;;15.20;43.60;;;;;;4998941;28;20489;-80
2021/06/01 21:38:18;;;;;;;4.33;3.60;;;15.00;43.70;;;;;;4999138;28;20454;-79
2021/06/01 21:40:53;;;;;;;3.83;3.40;;;15.10;44.00;;;;;;4995069;28;20461;-80
2021/06/01 21:43:27;;;;;;;6.37;3.90;;;14.90;43.90;;;;;;4992494;28;21348;-79
2021/06/01 21:46:05;;;;;;;4.90;3.40;;;14.80;44.20;;;;;;4995957;28;20459;-80
2021/06/01 21:48:46;;;;;;;3.53;3.20;;;14.80;44.30;;;;;;4997241;28;20499;-79
2021/06/01 21:51:21;;;;;;;4.33;3.20;;;14.80;44.50;;;;;;4994549;28;20543;-80
2021/06/01 21:53:57;;;;;;;3.90;3.53;;;14.70;44.50;;;;;;4996923;28;20962;-79
2021/06/01 21:56:35;;;;;;;3.73;3.27;;;14.60;44.60;;;;;;4998150;28;20466;-81
2021/06/01 21:59:16;;;;;;;6.97;4.33;;;14.60;44.70;;;;;;5002638;28;20617;-80
2021/06/01 22:01:51;;;;;;;4.87;3.30;;;14.60;44.80;;;;;;4997955;28;20451;-79
2021/06/01 22:04:27;;;;;;;4.90;4.40;;;14.50;44.90;;;;;;5000104;28;20482;-81
2021/06/01 22:07:06;;;;;;;3.50;3.20;;;14.30;45.10;;;;;;4999378;28;20491;-80
2021/06/01 22:09:41;;;;;;;4.10;3.80;;;14.40;45.40;;;;;;5001297;28;20455;-80
2021/06/01 22:12:17;;;;;;;6.33;3.87;;;14.30;45.50;;;;;;5019338;28;20473;-80
2021/06/01 22:14:54;;;;;;;6.30;3.87;;;14.20;45.70;;;;;;5005769;28;20494;-81
2021/06/01 22:17:31;;;;;;;4.50;4.10;;;14.00;46.00;;;;;;4999231;28;20525;-80
2021/06/01 22:20:08;;;;;;;4.50;4.10;;;14.00;46.20;;;;;;4991122;28;20562;-84
2021/06/01 22:22:42;;;;;;;4.27;3.63;;;13.80;46.40;;;;;;4996770;28;20505;-79
2021/06/01 22:25:18;;;;;;;5.03;4.50;;;13.80;46.60;;;;;;5001095;28;20600;-80
2021/06/01 22:27:54;;;;;;;4.80;4.03;;;13.80;46.70;;;;;;4992370;28;20869;-80
2021/06/01 22:30:32;;;;;;;4.40;3.97;;;13.80;47.00;;;;;;4996083;28;20444;-80
2021/06/01 22:33:10;;;;;;;6.50;4.37;;;13.60;47.20;;;;;;4992188;28;20544;-80
2021/06/01 22:35:45;;;;;;;6.23;3.67;;;13.70;47.50;;;;;;4994943;28;20524;-79
2021/06/01 22:38:19;;;;;;;4.73;4.33;;;13.60;47.70;;;;;;4992231;28;20534;-80
2021/06/01 22:40:56;;;;;;;5.00;4.30;;;13.40;47.80;;;;;;4996149;28;20542;-79
2021/06/01 22:43:37;;;;;;;5.90;3.60;;;13.60;47.90;;;;;;5002906;28;20536;-80
2021/06/01 22:46:19;;;;;;;4.43;3.50;;;13.40;48.00;;;;;;4996311;28;21036;-79
2021/06/01 22:48:56;;;;;;;5.10;4.57;;;13.30;48.20;;;;;;4995286;28;20850;-80
2021/06/01 22:51:32;;;;;;;6.10;4.13;;;13.30;48.50;;;;;;5000313;28;20440;-82
2021/06/01 22:54:08;;;;;;;5.30;4.80;;;13.20;48.70;;;;;;4999869;28;20546;-80
2021/06/01 22:56:45;;;;;;;4.60;4.13;;;13.20;48.90;;;;;;4998580;28;20451;-80
2021/06/01 22:59:24;;;;;;;4.93;4.30;;;13.10;49.20;;;;;;4992974;28;20561;-81
2021/06/01 23:02:01;;;;;;;5.03;4.53;;;13.10;49.30;;;;;;5001767;28;20445;-82
2021/06/01 23:04:38;;;;;;;5.80;4.37;;;13.00;49.30;;;;;;4994853;28;20556;-83